sensor_id;sensor_type;location;lat;lon;timestamp;P1;durP1;ratioP1;P2;durP2;ratioP2
12871;SDS011;6504;53.766;9.626;2022-08-06T00:02:24;1.30;;;0.90;;
12871;SDS011;6504;53.766;9.626;2022-08-06T00:05:00;2.67;;;1.20;;
12871;SDS011;6504;53.766;9.626;2022-08-06T00:07:31;2.10;;;1.07;;
12871;SDS011;6504;53.766;9.626;2022-08-06T00:10:13;1.10;;;1.00;;
12871;SDS011;6504;53.766;9.626;2022-08-06T00:12:42;2.03;;;1.03;;
12871;SDS011;6504;53.766;9.626;2022-08-06T00:15:13;1.17;;;0.90;;
12871;SDS011;6504;53.766;9.626;2022-08-06T00:18:07;0.83;;;0.80;;
12871;SDS011;6504;53.766;9.626;2022-08-06T00:20:39;2.40;;;0.97;;
12871;SDS011;6504;53.766;9.626;2022-08-06T00:23:08;1.33;;;1.00;;
12871;SDS011;6504;53.766;9.626;2022-08-06T00:25:42;3.87;;;1.10;;
12871;SDS011;6504;53.766;9.626;2022-08-06T00:28:19;2.30;;;1.00;;
12871;SDS011;6504;53.766;9.626;2022-08-06T00:30:57;2.50;;;1.10;;
12871;SDS011;6504;53.766;9.626;2022-08-06T00:33:37;3.97;;;1.00;;
12871;SDS011;6504;53.766;9.626;2022-08-06T00:36:23;3.33;;;1.10;;
12871;SDS011;6504;53.766;9.626;2022-08-06T00:38:57;4.63;;;1.10;;
12871;SDS011;6504;53.766;9.626;2022-08-06T00:41:35;1.63;;;1.00;;
12871;SDS011;6504;53.766;9.626;2022-08-06T00:44:11;2.17;;;1.03;;
12871;SDS011;6504;53.766;9.626;2022-08-06T00:46:43;2.47;;;0.90;;
12871;SDS011;6504;53.766;9.626;2022-08-06T00:49:15;2.47;;;1.10;;
12871;SDS011;6504;53.766;9.626;2022-08-06T00:52:07;1.60;;;1.20;;
12871;SDS011;6504;53.766;9.626;2022-08-06T00:54:35;2.17;;;1.03;;
12871;SDS011;6504;53.766;9.626;2022-08-06T00:57:04;1.10;;;1.00;;
12871;SDS011;6504;53.766;9.626;2022-08-06T00:59:37;3.87;;;1.23;;
12871;SDS011;6504;53.766;9.626;2022-08-06T01:02:08;3.00;;;1.20;;
12871;SDS011;6504;53.766;9.626;2022-08-06T01:04:40;2.37;;;1.40;;
12871;SDS011;6504;53.766;9.626;2022-08-06T01:07:09;2.03;;;1.10;;
12871;SDS011;6504;53.766;9.626;2022-08-06T01:09:37;1.30;;;1.10;;
12871;SDS011;6504;53.766;9.626;2022-08-06T01:12:23;3.47;;;0.93;;
12871;SDS011;6504;53.766;9.626;2022-08-06T01:15:00;2.00;;;1.23;;
12871;SDS011;6504;53.766;9.626;2022-08-06T01:17:42;1.50;;;1.20;;
12871;SDS011;6504;53.766;9.626;2022-08-06T01:20:24;2.57;;;1.07;;
12871;SDS011;6504;53.766;9.626;2022-08-06T01:23:35;3.07;;;1.30;;
12871;SDS011;6504;53.766;9.626;2022-08-06T01:29:09;2.63;;;1.30;;
12871;SDS011;6504;53.766;9.626;2022-08-06T01:31:43;1.57;;;0.90;;
12871;SDS011;6504;53.766;9.626;2022-08-06T01:34:22;2.07;;;1.10;;
12871;SDS011;6504;53.766;9.626;2022-08-06T01:36:59;2.73;;;1.03;;
12871;SDS011;6504;53.766;9.626;2022-08-06T01:39:35;2.00;;;1.10;;
12871;SDS011;6504;53.766;9.626;2022-08-06T01:42:26;1.27;;;1.00;;
12871;SDS011;6504;53.766;9.626;2022-08-06T01:45:05;2.07;;;1.20;;
12871;SDS011;6504;53.766;9.626;2022-08-06T01:47:58;1.53;;;1.00;;
12871;SDS011;6504;53.766;9.626;2022-08-06T01:50:34;1.73;;;1.03;;
12871;SDS011;6504;53.766;9.626;2022-08-06T01:53:05;2.73;;;1.20;;
12871;SDS011;6504;53.766;9.626;2022-08-06T01:55:42;2.47;;;1.10;;
12871;SDS011;6504;53.766;9.626;2022-08-06T01:58:27;1.87;;;1.00;;
12871;SDS011;6504;53.766;9.626;2022-08-06T02:01:03;2.43;;;1.10;;
12871;SDS011;6504;53.766;9.626;2022-08-06T02:03:37;4.03;;;1.10;;
12871;SDS011;6504;53.766;9.626;2022-08-06T02:06:25;1.03;;;0.90;;
12871;SDS011;6504;53.766;9.626;2022-08-06T02:09:02;2.47;;;1.20;;
12871;SDS011;6504;53.766;9.626;2022-08-06T02:11:50;2.67;;;1.57;;
12871;SDS011;6504;53.766;9.626;2022-08-06T02:14:32;2.33;;;1.30;;
12871;SDS011;6504;53.766;9.626;2022-08-06T02:17:10;1.97;;;1.30;;
12871;SDS011;6504;53.766;9.626;2022-08-06T02:19:43;2.43;;;1.30;;
12871;SDS011;6504;53.766;9.626;2022-08-06T02:22:24;3.30;;;1.43;;
12871;SDS011;6504;53.766;9.626;2022-08-06T02:24:57;1.93;;;1.40;;
12871;SDS011;6504;53.766;9.626;2022-08-06T02:27:37;1.63;;;1.50;;
12871;SDS011;6504;53.766;9.626;2022-08-06T02:30:25;1.53;;;1.40;;
12871;SDS011;6504;53.766;9.626;2022-08-06T02:33:03;3.27;;;1.20;;
12871;SDS011;6504;53.766;9.626;2022-08-06T02:35:38;2.30;;;1.40;;
12871;SDS011;6504;53.766;9.626;2022-08-06T02:38:21;1.87;;;1.40;;
12871;SDS011;6504;53.766;9.626;2022-08-06T02:40:57;1.67;;;1.37;;
12871;SDS011;6504;53.766;9.626;2022-08-06T02:43:30;2.50;;;1.47;;
12871;SDS011;6504;53.766;9.626;2022-08-06T02:46:07;1.40;;;1.30;;
12871;SDS011;6504;53.766;9.626;2022-08-06T02:48:42;2.00;;;1.50;;
12871;SDS011;6504;53.766;9.626;2022-08-06T02:51:18;2.13;;;1.60;;
12871;SDS011;6504;53.766;9.626;2022-08-06T02:54:12;1.50;;;1.40;;
12871;SDS011;6504;53.766;9.626;2022-08-06T02:56:45;2.13;;;1.60;;
12871;SDS011;6504;53.766;9.626;2022-08-06T02:59:20;2.40;;;1.37;;
12871;SDS011;6504;53.766;9.626;2022-08-06T03:02:05;1.87;;;1.53;;
12871;SDS011;6504;53.766;9.626;2022-08-06T03:07:28;4.63;;;1.97;;
12871;SDS011;6504;53.766;9.626;2022-08-06T03:10:00;2.77;;;1.80;;
12871;SDS011;6504;53.766;9.626;2022-08-06T03:12:41;2.27;;;1.40;;
12871;SDS011;6504;53.766;9.626;2022-08-06T03:15:12;2.00;;;1.30;;
12871;SDS011;6504;53.766;9.626;2022-08-06T03:18:02;1.20;;;1.17;;
12871;SDS011;6504;53.766;9.626;2022-08-06T03:20:36;1.80;;;1.50;;
12871;SDS011;6504;53.766;9.626;2022-08-06T03:23:07;1.80;;;1.13;;
12871;SDS011;6504;53.766;9.626;2022-08-06T03:25:40;1.40;;;1.23;;
12871;SDS011;6504;53.766;9.626;2022-08-06T03:28:12;1.40;;;1.30;;
12871;SDS011;6504;53.766;9.626;2022-08-06T03:30:48;1.50;;;1.30;;
12871;SDS011;6504;53.766;9.626;2022-08-06T03:33:21;2.30;;;1.20;;
12871;SDS011;6504;53.766;9.626;2022-08-06T03:36:11;1.37;;;1.27;;
12871;SDS011;6504;53.766;9.626;2022-08-06T03:38:44;1.10;;;1.10;;
12871;SDS011;6504;53.766;9.626;2022-08-06T03:41:21;1.20;;;1.10;;
12871;SDS011;6504;53.766;9.626;2022-08-06T03:44:05;1.40;;;1.03;;
12871;SDS011;6504;53.766;9.626;2022-08-06T03:46:41;1.70;;;1.20;;
12871;SDS011;6504;53.766;9.626;2022-08-06T03:49:16;0.90;;;0.90;;
12871;SDS011;6504;53.766;9.626;2022-08-06T03:51:58;1.80;;;0.90;;
12871;SDS011;6504;53.766;9.626;2022-08-06T03:54:31;0.80;;;0.80;;
12871;SDS011;6504;53.766;9.626;2022-08-06T03:57:09;1.57;;;1.00;;
12871;SDS011;6504;53.766;9.626;2022-08-06T03:59:41;1.20;;;0.90;;
12871;SDS011;6504;53.766;9.626;2022-08-06T04:02:27;1.93;;;1.07;;
12871;SDS011;6504;53.766;9.626;2022-08-06T04:05:10;3.10;;;1.30;;
12871;SDS011;6504;53.766;9.626;2022-08-06T04:07:51;0.97;;;0.97;;
12871;SDS011;6504;53.766;9.626;2022-08-06T04:10:29;1.20;;;1.00;;
12871;SDS011;6504;53.766;9.626;2022-08-06T04:13:04;1.50;;;0.87;;
12871;SDS011;6504;53.766;9.626;2022-08-06T04:15:55;1.75;;;0.90;;
12871;SDS011;6504;53.766;9.626;2022-08-06T04:18:28;1.63;;;0.90;;
12871;SDS011;6504;53.766;9.626;2022-08-06T04:21:08;1.53;;;1.20;;
12871;SDS011;6504;53.766;9.626;2022-08-06T04:23:51;2.00;;;1.00;;
12871;SDS011;6504;53.766;9.626;2022-08-06T04:26:21;1.27;;;1.00;;
12871;SDS011;6504;53.766;9.626;2022-08-06T04:28:51;1.17;;;0.90;;
12871;SDS011;6504;53.766;9.626;2022-08-06T04:31:25;1.47;;;0.93;;
12871;SDS011;6504;53.766;9.626;2022-08-06T04:34:18;1.00;;;0.90;;
12871;SDS011;6504;53.766;9.626;2022-08-06T04:36:54;1.33;;;1.00;;
12871;SDS011;6504;53.766;9.626;2022-08-06T04:39:25;1.10;;;1.00;;
12871;SDS011;6504;53.766;9.626;2022-08-06T04:42:14;2.50;;;1.20;;
12871;SDS011;6504;53.766;9.626;2022-08-06T04:44:51;1.53;;;1.33;;
12871;SDS011;6504;53.766;9.626;2022-08-06T04:47:25;1.37;;;1.00;;
12871;SDS011;6504;53.766;9.626;2022-08-06T04:50:15;2.03;;;1.20;;
12871;SDS011;6504;53.766;9.626;2022-08-06T04:52:49;2.20;;;1.30;;
12871;SDS011;6504;53.766;9.626;2022-08-06T04:55:22;2.50;;;1.37;;
12871;SDS011;6504;53.766;9.626;2022-08-06T04:58:03;2.10;;;1.57;;
12871;SDS011;6504;53.766;9.626;2022-08-06T05:00:38;2.03;;;1.40;;
12871;SDS011;6504;53.766;9.626;2022-08-06T05:03:31;1.87;;;1.30;;
12871;SDS011;6504;53.766;9.626;2022-08-06T05:06:20;1.60;;;1.50;;
12871;SDS011;6504;53.766;9.626;2022-08-06T05:08:53;2.87;;;1.50;;
12871;SDS011;6504;53.766;9.626;2022-08-06T05:11:26;2.20;;;1.57;;
12871;SDS011;6504;53.766;9.626;2022-08-06T05:14:08;1.97;;;1.30;;
12871;SDS011;6504;53.766;9.626;2022-08-06T05:16:43;2.63;;;1.23;;
12871;SDS011;6504;53.766;9.626;2022-08-06T05:19:21;3.20;;;1.60;;
12871;SDS011;6504;53.766;9.626;2022-08-06T05:22:00;2.73;;;1.60;;
12871;SDS011;6504;53.766;9.626;2022-08-06T05:24:37;1.87;;;1.27;;
12871;SDS011;6504;53.766;9.626;2022-08-06T05:27:28;3.23;;;1.63;;
12871;SDS011;6504;53.766;9.626;2022-08-06T05:30:16;1.23;;;1.13;;
12871;SDS011;6504;53.766;9.626;2022-08-06T05:32:48;3.10;;;1.63;;
12871;SDS011;6504;53.766;9.626;2022-08-06T05:35:25;4.53;;;1.40;;
12871;SDS011;6504;53.766;9.626;2022-08-06T05:38:07;1.53;;;1.40;;
12871;SDS011;6504;53.766;9.626;2022-08-06T05:40:37;1.40;;;1.30;;
12871;SDS011;6504;53.766;9.626;2022-08-06T05:43:24;1.43;;;1.30;;
12871;SDS011;6504;53.766;9.626;2022-08-06T05:46:13;1.33;;;1.23;;
12871;SDS011;6504;53.766;9.626;2022-08-06T05:48:55;1.50;;;1.10;;
12871;SDS011;6504;53.766;9.626;2022-08-06T05:51:52;1.77;;;1.40;;
12871;SDS011;6504;53.766;9.626;2022-08-06T05:54:31;3.03;;;1.30;;
12871;SDS011;6504;53.766;9.626;2022-08-06T05:57:05;1.60;;;1.30;;
12871;SDS011;6504;53.766;9.626;2022-08-06T05:59:46;1.50;;;1.40;;
12871;SDS011;6504;53.766;9.626;2022-08-06T06:02:25;2.70;;;1.57;;
12871;SDS011;6504;53.766;9.626;2022-08-06T06:04:56;3.00;;;1.83;;
12871;SDS011;6504;53.766;9.626;2022-08-06T06:07:49;2.00;;;1.80;;
12871;SDS011;6504;53.766;9.626;2022-08-06T06:10:38;1.60;;;1.43;;
12871;SDS011;6504;53.766;9.626;2022-08-06T06:13:19;4.43;;;2.00;;
12871;SDS011;6504;53.766;9.626;2022-08-06T06:15:56;2.07;;;1.30;;
12871;SDS011;6504;53.766;9.626;2022-08-06T06:18:34;1.80;;;1.50;;
12871;SDS011;6504;53.766;9.626;2022-08-06T06:21:48;2.70;;;1.40;;
12871;SDS011;6504;53.766;9.626;2022-08-06T06:24:42;4.13;;;1.53;;
12871;SDS011;6504;53.766;9.626;2022-08-06T06:27:38;2.47;;;1.70;;
12871;SDS011;6504;53.766;9.626;2022-08-06T06:30:33;1.50;;;1.40;;
12871;SDS011;6504;53.766;9.626;2022-08-06T06:33:32;5.57;;;1.80;;
12871;SDS011;6504;53.766;9.626;2022-08-06T06:36:26;1.60;;;1.50;;
12871;SDS011;6504;53.766;9.626;2022-08-06T06:39:23;2.10;;;1.50;;
12871;SDS011;6504;53.766;9.626;2022-08-06T06:42:17;3.33;;;1.60;;
12871;SDS011;6504;53.766;9.626;2022-08-06T06:45:14;2.07;;;1.43;;
12871;SDS011;6504;53.766;9.626;2022-08-06T06:48:09;3.10;;;1.60;;
12871;SDS011;6504;53.766;9.626;2022-08-06T06:51:03;3.03;;;1.30;;
12871;SDS011;6504;53.766;9.626;2022-08-06T06:53:54;4.50;;;1.30;;
12871;SDS011;6504;53.766;9.626;2022-08-06T06:56:43;2.90;;;1.23;;
12871;SDS011;6504;53.766;9.626;2022-08-06T06:59:36;4.07;;;1.37;;
12871;SDS011;6504;53.766;9.626;2022-08-06T07:02:26;2.23;;;1.00;;
12871;SDS011;6504;53.766;9.626;2022-08-06T07:05:16;2.77;;;1.10;;
12871;SDS011;6504;53.766;9.626;2022-08-06T07:08:10;1.73;;;1.07;;
12871;SDS011;6504;53.766;9.626;2022-08-06T07:11:02;1.67;;;1.00;;
12871;SDS011;6504;53.766;9.626;2022-08-06T07:13:51;3.17;;;1.20;;
12871;SDS011;6504;53.766;9.626;2022-08-06T07:16:45;2.60;;;1.27;;
12871;SDS011;6504;53.766;9.626;2022-08-06T07:19:37;1.10;;;0.90;;
12871;SDS011;6504;53.766;9.626;2022-08-06T07:22:25;2.37;;;1.20;;
12871;SDS011;6504;53.766;9.626;2022-08-06T07:25:15;2.37;;;1.10;;
12871;SDS011;6504;53.766;9.626;2022-08-06T07:28:02;2.57;;;1.10;;
12871;SDS011;6504;53.766;9.626;2022-08-06T07:30:54;1.60;;;1.20;;
12871;SDS011;6504;53.766;9.626;2022-08-06T07:33:43;3.30;;;1.10;;
12871;SDS011;6504;53.766;9.626;2022-08-06T07:36:32;1.40;;;0.80;;
12871;SDS011;6504;53.766;9.626;2022-08-06T07:39:26;2.90;;;0.93;;
12871;SDS011;6504;53.766;9.626;2022-08-06T07:42:16;2.23;;;1.07;;
12871;SDS011;6504;53.766;9.626;2022-08-06T07:45:08;1.40;;;1.00;;
12871;SDS011;6504;53.766;9.626;2022-08-06T07:48:00;1.13;;;0.80;;
12871;SDS011;6504;53.766;9.626;2022-08-06T07:50:52;1.97;;;1.00;;
12871;SDS011;6504;53.766;9.626;2022-08-06T07:53:40;2.87;;;1.00;;
12871;SDS011;6504;53.766;9.626;2022-08-06T07:56:30;3.73;;;1.00;;
12871;SDS011;6504;53.766;9.626;2022-08-06T07:59:25;1.13;;;0.80;;
12871;SDS011;6504;53.766;9.626;2022-08-06T08:02:15;3.50;;;1.00;;
12871;SDS011;6504;53.766;9.626;2022-08-06T08:05:03;2.23;;;0.90;;
12871;SDS011;6504;53.766;9.626;2022-08-06T08:08:09;4.07;;;1.10;;
12871;SDS011;6504;53.766;9.626;2022-08-06T08:10:56;2.57;;;0.90;;
12871;SDS011;6504;53.766;9.626;2022-08-06T08:13:47;2.10;;;0.77;;
12871;SDS011;6504;53.766;9.626;2022-08-06T08:16:40;3.77;;;0.90;;
12871;SDS011;6504;53.766;9.626;2022-08-06T08:19:29;3.57;;;1.00;;
12871;SDS011;6504;53.766;9.626;2022-08-06T08:22:18;1.37;;;0.97;;
12871;SDS011;6504;53.766;9.626;2022-08-06T08:25:06;1.97;;;0.93;;
12871;SDS011;6504;53.766;9.626;2022-08-06T08:28:01;1.97;;;0.87;;
12871;SDS011;6504;53.766;9.626;2022-08-06T08:30:48;3.40;;;0.90;;
12871;SDS011;6504;53.766;9.626;2022-08-06T08:33:37;2.97;;;1.00;;
12871;SDS011;6504;53.766;9.626;2022-08-06T08:36:24;2.40;;;0.70;;
12871;SDS011;6504;53.766;9.626;2022-08-06T08:39:11;2.33;;;0.80;;
12871;SDS011;6504;53.766;9.626;2022-08-06T08:42:03;2.47;;;0.87;;
12871;SDS011;6504;53.766;9.626;2022-08-06T08:44:55;2.07;;;0.70;;
12871;SDS011;6504;53.766;9.626;2022-08-06T08:47:46;3.07;;;0.80;;
12871;SDS011;6504;53.766;9.626;2022-08-06T08:50:46;2.30;;;1.00;;
12871;SDS011;6504;53.766;9.626;2022-08-06T08:53:36;2.50;;;0.80;;
12871;SDS011;6504;53.766;9.626;2022-08-06T08:56:24;3.40;;;0.80;;
12871;SDS011;6504;53.766;9.626;2022-08-06T08:59:12;3.60;;;1.00;;
12871;SDS011;6504;53.766;9.626;2022-08-06T09:02:04;3.67;;;1.00;;
12871;SDS011;6504;53.766;9.626;2022-08-06T09:04:57;1.97;;;1.03;;
12871;SDS011;6504;53.766;9.626;2022-08-06T09:07:46;3.37;;;1.47;;
12871;SDS011;6504;53.766;9.626;2022-08-06T09:10:37;2.67;;;0.90;;
12871;SDS011;6504;53.766;9.626;2022-08-06T09:13:25;1.90;;;0.90;;
12871;SDS011;6504;53.766;9.626;2022-08-06T09:16:15;3.17;;;1.00;;
12871;SDS011;6504;53.766;9.626;2022-08-06T09:19:02;3.07;;;0.90;;
12871;SDS011;6504;53.766;9.626;2022-08-06T09:21:55;1.87;;;1.10;;
12871;SDS011;6504;53.766;9.626;2022-08-06T09:24:45;2.13;;;1.20;;
12871;SDS011;6504;53.766;9.626;2022-08-06T09:27:33;3.27;;;1.30;;
12871;SDS011;6504;53.766;9.626;2022-08-06T09:30:27;2.67;;;1.43;;
12871;SDS011;6504;53.766;9.626;2022-08-06T09:33:14;3.93;;;1.83;;
12871;SDS011;6504;53.766;9.626;2022-08-06T09:36:01;2.97;;;1.80;;
12871;SDS011;6504;53.766;9.626;2022-08-06T09:38:49;3.73;;;1.80;;
12871;SDS011;6504;53.766;9.626;2022-08-06T09:41:47;3.03;;;2.23;;
12871;SDS011;6504;53.766;9.626;2022-08-06T09:44:35;4.77;;;2.33;;
12871;SDS011;6504;53.766;9.626;2022-08-06T09:47:23;5.00;;;2.70;;
12871;SDS011;6504;53.766;9.626;2022-08-06T09:50:12;3.13;;;2.60;;
12871;SDS011;6504;53.766;9.626;2022-08-06T09:53:05;4.87;;;3.10;;
12871;SDS011;6504;53.766;9.626;2022-08-06T09:55:55;5.13;;;3.40;;
12871;SDS011;6504;53.766;9.626;2022-08-06T09:58:45;3.47;;;2.90;;
12871;SDS011;6504;53.766;9.626;2022-08-06T10:01:39;3.70;;;3.20;;
12871;SDS011;6504;53.766;9.626;2022-08-06T10:04:30;4.23;;;3.23;;
12871;SDS011;6504;53.766;9.626;2022-08-06T10:07:31;5.90;;;3.43;;
12871;SDS011;6504;53.766;9.626;2022-08-06T10:10:19;4.00;;;3.17;;
12871;SDS011;6504;53.766;9.626;2022-08-06T10:13:21;5.03;;;3.70;;
12871;SDS011;6504;53.766;9.626;2022-08-06T10:16:16;5.10;;;3.80;;
12871;SDS011;6504;53.766;9.626;2022-08-06T10:19:05;4.40;;;4.00;;
12871;SDS011;6504;53.766;9.626;2022-08-06T10:22:03;4.60;;;3.50;;
12871;SDS011;6504;53.766;9.626;2022-08-06T10:24:51;5.20;;;3.90;;
12871;SDS011;6504;53.766;9.626;2022-08-06T10:27:45;5.23;;;4.03;;
12871;SDS011;6504;53.766;9.626;2022-08-06T10:30:34;5.20;;;4.53;;
12871;SDS011;6504;53.766;9.626;2022-08-06T10:33:24;4.63;;;4.03;;
12871;SDS011;6504;53.766;9.626;2022-08-06T10:36:18;4.27;;;3.87;;
12871;SDS011;6504;53.766;9.626;2022-08-06T10:39:13;5.10;;;3.87;;
12871;SDS011;6504;53.766;9.626;2022-08-06T10:42:01;5.93;;;4.30;;
12871;SDS011;6504;53.766;9.626;2022-08-06T10:44:49;7.20;;;4.47;;
12871;SDS011;6504;53.766;9.626;2022-08-06T10:47:37;5.30;;;4.80;;
12871;SDS011;6504;53.766;9.626;2022-08-06T10:50:29;5.40;;;4.90;;
12871;SDS011;6504;53.766;9.626;2022-08-06T10:53:17;5.67;;;4.37;;
12871;SDS011;6504;53.766;9.626;2022-08-06T10:56:07;5.13;;;4.33;;
12871;SDS011;6504;53.766;9.626;2022-08-06T10:58:55;5.23;;;4.40;;
12871;SDS011;6504;53.766;9.626;2022-08-06T11:01:43;5.13;;;4.63;;
12871;SDS011;6504;53.766;9.626;2022-08-06T11:04:48;4.63;;;4.13;;
12871;SDS011;6504;53.766;9.626;2022-08-06T11:07:48;5.93;;;2.93;;
12871;SDS011;6504;53.766;9.626;2022-08-06T11:14:13;4.33;;;3.93;;
12871;SDS011;6504;53.766;9.626;2022-08-06T11:17:05;6.13;;;4.20;;
12871;SDS011;6504;53.766;9.626;2022-08-06T11:19:52;5.47;;;4.63;;
12871;SDS011;6504;53.766;9.626;2022-08-06T11:22:50;5.57;;;4.90;;
12871;SDS011;6504;53.766;9.626;2022-08-06T11:25:37;6.57;;;4.80;;
12871;SDS011;6504;53.766;9.626;2022-08-06T11:31:47;4.97;;;4.60;;
12871;SDS011;6504;53.766;9.626;2022-08-06T11:34:40;5.00;;;4.03;;
12871;SDS011;6504;53.766;9.626;2022-08-06T11:37:45;5.47;;;4.63;;
12871;SDS011;6504;53.766;9.626;2022-08-06T11:43:45;6.73;;;4.83;;
12871;SDS011;6504;53.766;9.626;2022-08-06T11:46:36;5.50;;;5.00;;
12871;SDS011;6504;53.766;9.626;2022-08-06T11:49:34;4.97;;;4.57;;
12871;SDS011;6504;53.766;9.626;2022-08-06T11:52:42;5.57;;;5.07;;
12871;SDS011;6504;53.766;9.626;2022-08-06T11:55:28;5.33;;;4.83;;
12871;SDS011;6504;53.766;9.626;2022-08-06T11:58:20;4.97;;;4.57;;
12871;SDS011;6504;53.766;9.626;2022-08-06T12:01:12;5.47;;;4.97;;
12871;SDS011;6504;53.766;9.626;2022-08-06T12:03:59;4.97;;;4.57;;
12871;SDS011;6504;53.766;9.626;2022-08-06T12:06:46;5.60;;;5.10;;
12871;SDS011;6504;53.766;9.626;2022-08-06T12:09:38;5.43;;;4.83;;
12871;SDS011;6504;53.766;9.626;2022-08-06T12:12:33;5.43;;;4.93;;
12871;SDS011;6504;53.766;9.626;2022-08-06T12:18:37;5.13;;;4.43;;
12871;SDS011;6504;53.766;9.626;2022-08-06T12:21:24;5.73;;;5.23;;
12871;SDS011;6504;53.766;9.626;2022-08-06T12:24:11;7.33;;;5.20;;
12871;SDS011;6504;53.766;9.626;2022-08-06T12:26:58;5.27;;;4.73;;
12871;SDS011;6504;53.766;9.626;2022-08-06T12:29:45;5.57;;;5.07;;
12871;SDS011;6504;53.766;9.626;2022-08-06T12:32:36;5.73;;;5.07;;
12871;SDS011;6504;53.766;9.626;2022-08-06T12:35:23;5.23;;;4.73;;
12871;SDS011;6504;53.766;9.626;2022-08-06T12:38:12;5.37;;;4.90;;
12871;SDS011;6504;53.766;9.626;2022-08-06T12:41:02;5.90;;;5.40;;
12871;SDS011;6504;53.766;9.626;2022-08-06T12:43:50;5.90;;;4.97;;
12871;SDS011;6504;53.766;9.626;2022-08-06T12:46:37;5.27;;;4.77;;
12871;SDS011;6504;53.766;9.626;2022-08-06T12:49:33;6.73;;;5.30;;
12871;SDS011;6504;53.766;9.626;2022-08-06T12:52:22;5.50;;;5.00;;
12871;SDS011;6504;53.766;9.626;2022-08-06T12:55:16;6.50;;;5.57;;
12871;SDS011;6504;53.766;9.626;2022-08-06T12:58:02;5.50;;;5.00;;
12871;SDS011;6504;53.766;9.626;2022-08-06T13:01:01;5.87;;;5.37;;
12871;SDS011;6504;53.766;9.626;2022-08-06T13:03:53;6.50;;;5.90;;
12871;SDS011;6504;53.766;9.626;2022-08-06T13:06:43;6.60;;;5.87;;
12871;SDS011;6504;53.766;9.626;2022-08-06T13:09:37;6.60;;;5.67;;
12871;SDS011;6504;53.766;9.626;2022-08-06T13:12:27;6.40;;;5.90;;
12871;SDS011;6504;53.766;9.626;2022-08-06T13:15:18;6.67;;;5.70;;
12871;SDS011;6504;53.766;9.626;2022-08-06T13:18:06;6.23;;;5.73;;
12871;SDS011;6504;53.766;9.626;2022-08-06T13:20:57;6.50;;;5.97;;
12871;SDS011;6504;53.766;9.626;2022-08-06T13:23:47;7.27;;;6.57;;
12871;SDS011;6504;53.766;9.626;2022-08-06T13:26:48;7.27;;;6.00;;
12871;SDS011;6504;53.766;9.626;2022-08-06T13:29:37;6.47;;;5.87;;
12871;SDS011;6504;53.766;9.626;2022-08-06T13:32:42;6.27;;;5.67;;
12871;SDS011;6504;53.766;9.626;2022-08-06T13:35:29;6.83;;;5.77;;
12871;SDS011;6504;53.766;9.626;2022-08-06T13:38:28;7.07;;;6.10;;
12871;SDS011;6504;53.766;9.626;2022-08-06T13:41:24;7.10;;;6.40;;
12871;SDS011;6504;53.766;9.626;2022-08-06T13:44:29;7.03;;;6.20;;
12871;SDS011;6504;53.766;9.626;2022-08-06T13:47:26;6.30;;;5.70;;
12871;SDS011;6504;53.766;9.626;2022-08-06T13:50:14;6.33;;;5.73;;
12871;SDS011;6504;53.766;9.626;2022-08-06T13:53:01;6.83;;;6.10;;
12871;SDS011;6504;53.766;9.626;2022-08-06T13:55:50;6.90;;;6.20;;
12871;SDS011;6504;53.766;9.626;2022-08-06T13:58:44;7.20;;;6.50;;
12871;SDS011;6504;53.766;9.626;2022-08-06T14:01:31;6.70;;;6.00;;
12871;SDS011;6504;53.766;9.626;2022-08-06T14:04:19;6.23;;;5.70;;
12871;SDS011;6504;53.766;9.626;2022-08-06T14:07:13;6.57;;;5.93;;
12871;SDS011;6504;53.766;9.626;2022-08-06T14:10:00;6.77;;;6.07;;
12871;SDS011;6504;53.766;9.626;2022-08-06T14:12:47;5.80;;;5.30;;
12871;SDS011;6504;53.766;9.626;2022-08-06T14:15:49;6.00;;;5.23;;
12871;SDS011;6504;53.766;9.626;2022-08-06T14:18:37;6.17;;;5.57;;
12871;SDS011;6504;53.766;9.626;2022-08-06T14:21:25;7.13;;;5.90;;
12871;SDS011;6504;53.766;9.626;2022-08-06T14:24:12;5.80;;;5.30;;
12871;SDS011;6504;53.766;9.626;2022-08-06T14:27:04;6.37;;;5.77;;
12871;SDS011;6504;53.766;9.626;2022-08-06T14:29:52;6.10;;;5.50;;
12871;SDS011;6504;53.766;9.626;2022-08-06T14:32:41;6.33;;;5.73;;
12871;SDS011;6504;53.766;9.626;2022-08-06T14:35:30;5.47;;;4.97;;
12871;SDS011;6504;53.766;9.626;2022-08-06T14:38:25;6.33;;;5.73;;
12871;SDS011;6504;53.766;9.626;2022-08-06T14:41:12;6.53;;;5.97;;
12871;SDS011;6504;53.766;9.626;2022-08-06T14:44:18;6.07;;;4.97;;
12871;SDS011;6504;53.766;9.626;2022-08-06T14:47:25;6.30;;;5.70;;
12871;SDS011;6504;53.766;9.626;2022-08-06T14:50:15;8.00;;;5.87;;
12871;SDS011;6504;53.766;9.626;2022-08-06T14:53:02;6.50;;;5.90;;
12871;SDS011;6504;53.766;9.626;2022-08-06T14:55:48;6.30;;;5.70;;
12871;SDS011;6504;53.766;9.626;2022-08-06T14:58:36;6.33;;;5.83;;
12871;SDS011;6504;53.766;9.626;2022-08-06T15:01:28;6.20;;;5.67;;
12871;SDS011;6504;53.766;9.626;2022-08-06T15:04:17;6.23;;;5.63;;
12871;SDS011;6504;53.766;9.626;2022-08-06T15:07:06;6.87;;;5.80;;
12871;SDS011;6504;53.766;9.626;2022-08-06T15:09:56;5.77;;;5.20;;
12871;SDS011;6504;53.766;9.626;2022-08-06T15:12:44;6.07;;;5.60;;
12871;SDS011;6504;53.766;9.626;2022-08-06T15:15:31;6.20;;;5.70;;
12871;SDS011;6504;53.766;9.626;2022-08-06T15:18:20;6.37;;;5.70;;
12871;SDS011;6504;53.766;9.626;2022-08-06T15:21:07;6.17;;;5.67;;
12871;SDS011;6504;53.766;9.626;2022-08-06T15:24:00;6.37;;;5.87;;
12871;SDS011;6504;53.766;9.626;2022-08-06T15:26:47;6.50;;;5.90;;
12871;SDS011;6504;53.766;9.626;2022-08-06T15:29:33;6.40;;;5.77;;
12871;SDS011;6504;53.766;9.626;2022-08-06T15:32:20;6.20;;;5.60;;
12871;SDS011;6504;53.766;9.626;2022-08-06T15:35:13;6.63;;;6.03;;
12871;SDS011;6504;53.766;9.626;2022-08-06T15:38:00;6.70;;;6.20;;
12871;SDS011;6504;53.766;9.626;2022-08-06T15:40:49;6.37;;;5.80;;
12871;SDS011;6504;53.766;9.626;2022-08-06T15:43:35;6.60;;;6.00;;
12871;SDS011;6504;53.766;9.626;2022-08-06T15:46:23;6.47;;;5.87;;
12871;SDS011;6504;53.766;9.626;2022-08-06T15:49:19;6.80;;;6.30;;
12871;SDS011;6504;53.766;9.626;2022-08-06T15:52:06;6.33;;;5.80;;
12871;SDS011;6504;53.766;9.626;2022-08-06T15:54:53;6.43;;;5.83;;
12871;SDS011;6504;53.766;9.626;2022-08-06T15:57:51;6.70;;;6.10;;
12871;SDS011;6504;53.766;9.626;2022-08-06T16:00:41;6.87;;;6.23;;
12871;SDS011;6504;53.766;9.626;2022-08-06T16:03:28;6.47;;;5.97;;
12871;SDS011;6504;53.766;9.626;2022-08-06T16:06:18;8.30;;;7.50;;
12871;SDS011;6504;53.766;9.626;2022-08-06T16:09:05;7.23;;;6.53;;
12871;SDS011;6504;53.766;9.626;2022-08-06T16:11:52;7.60;;;6.80;;
12871;SDS011;6504;53.766;9.626;2022-08-06T16:14:40;7.40;;;6.70;;
12871;SDS011;6504;53.766;9.626;2022-08-06T16:17:32;7.30;;;6.17;;
12871;SDS011;6504;53.766;9.626;2022-08-06T16:20:19;6.20;;;5.70;;
12871;SDS011;6504;53.766;9.626;2022-08-06T16:23:06;7.33;;;5.93;;
12871;SDS011;6504;53.766;9.626;2022-08-06T16:25:53;5.93;;;5.43;;
12871;SDS011;6504;53.766;9.626;2022-08-06T16:28:40;6.03;;;5.53;;
12871;SDS011;6504;53.766;9.626;2022-08-06T16:31:29;6.80;;;6.00;;
12871;SDS011;6504;53.766;9.626;2022-08-06T16:34:18;6.33;;;5.83;;
12871;SDS011;6504;53.766;9.626;2022-08-06T16:37:05;7.20;;;6.40;;
12871;SDS011;6504;53.766;9.626;2022-08-06T16:39:54;7.30;;;6.60;;
12871;SDS011;6504;53.766;9.626;2022-08-06T16:42:42;6.30;;;5.67;;
12871;SDS011;6504;53.766;9.626;2022-08-06T16:45:33;6.80;;;6.13;;
12871;SDS011;6504;53.766;9.626;2022-08-06T16:48:21;6.23;;;5.63;;
12871;SDS011;6504;53.766;9.626;2022-08-06T16:51:10;6.47;;;5.87;;
12871;SDS011;6504;53.766;9.626;2022-08-06T16:54:06;5.77;;;5.37;;
12871;SDS011;6504;53.766;9.626;2022-08-06T16:56:56;6.20;;;5.60;;
12871;SDS011;6504;53.766;9.626;2022-08-06T16:59:45;6.50;;;5.40;;
12871;SDS011;6504;53.766;9.626;2022-08-06T17:02:34;6.03;;;5.53;;
12871;SDS011;6504;53.766;9.626;2022-08-06T17:05:26;5.70;;;5.13;;
12871;SDS011;6504;53.766;9.626;2022-08-06T17:08:18;6.30;;;5.80;;
12871;SDS011;6504;53.766;9.626;2022-08-06T17:11:08;6.20;;;5.60;;
12871;SDS011;6504;53.766;9.626;2022-08-06T17:13:56;5.63;;;5.13;;
12871;SDS011;6504;53.766;9.626;2022-08-06T17:16:42;5.27;;;4.50;;